createdAt,value
2023-01-07T00:01:15.436Z,14.20
2023-01-07T00:03:42.823Z,14.40
2023-01-07T00:06:15.154Z,14.20
2023-01-07T00:08:43.924Z,13.60
2023-01-07T00:11:22.286Z,13.60
2023-01-07T00:13:49.796Z,14.70
2023-01-07T00:16:18.520Z,17.60
2023-01-07T00:18:48.372Z,15.70
2023-01-07T00:21:16.403Z,15.50
2023-01-07T00:23:43.781Z,13.10
2023-01-07T00:26:12.845Z,13.50
2023-01-07T00:28:42.435Z,12.80
2023-01-07T00:31:11.105Z,12.00
2023-01-07T00:33:47.855Z,11.30
2023-01-07T00:36:14.803Z,9.90
2023-01-07T00:38:41.630Z,10.20
2023-01-07T00:41:09.553Z,10.90
2023-01-07T00:43:36.403Z,10.60
2023-01-07T00:46:03.293Z,9.40
2023-01-07T00:48:30.232Z,10.40
2023-01-07T00:50:57.156Z,9.60
2023-01-07T00:53:25.227Z,10.40
2023-01-07T00:55:52.280Z,11.00
2023-01-07T00:58:27.052Z,12.00
2023-01-07T01:00:57.883Z,12.20
2023-01-07T01:03:25.422Z,11.20
2023-01-07T01:05:52.414Z,11.60
2023-01-07T01:08:24.872Z,10.30
2023-01-07T01:10:51.707Z,11.00
2023-01-07T01:13:26.393Z,10.40
2023-01-07T01:15:55.331Z,11.80
2023-01-07T01:18:25.044Z,11.50
2023-01-07T01:20:52.016Z,11.50
2023-01-07T01:23:18.937Z,10.30
2023-01-07T01:25:48.321Z,10.80
2023-01-07T01:28:15.347Z,10.50
2023-01-07T01:30:44.543Z,11.10
2023-01-07T01:33:12.833Z,11.10
2023-01-07T01:35:41.177Z,11.80
2023-01-07T01:38:11.354Z,10.50
2023-01-07T01:40:38.332Z,11.40
2023-01-07T01:43:05.503Z,10.80
2023-01-07T01:45:32.637Z,10.30
2023-01-07T01:48:08.892Z,9.70
2023-01-07T01:50:39.061Z,9.20
2023-01-07T01:53:10.405Z,10.40
2023-01-07T01:56:09.774Z,10.90
2023-01-07T01:58:39.353Z,10.00
2023-01-07T02:01:06.656Z,10.10
2023-01-07T02:03:37.107Z,10.40
2023-01-07T02:06:04.281Z,12.30
2023-01-07T02:08:31.264Z,13.90
2023-01-07T02:11:45.844Z,13.50
2023-01-07T02:14:31.464Z,13.30
2023-01-07T02:17:12.740Z,14.60
2023-01-07T02:20:01.392Z,16.00
2023-01-07T02:22:31.333Z,16.00
2023-01-07T02:25:18.868Z,17.00
2023-01-07T02:28:00.193Z,17.30
2023-01-07T02:30:50.813Z,16.00
2023-01-07T02:33:56.265Z,16.20
2023-01-07T02:36:47.591Z,15.30
2023-01-07T02:39:24.147Z,14.70
2023-01-07T02:41:59.073Z,15.30
2023-01-07T02:44:49.221Z,16.20
2023-01-07T02:47:21.989Z,15.90
2023-01-07T02:49:49.062Z,17.70
2023-01-07T02:52:23.239Z,17.90
2023-01-07T02:55:04.819Z,14.90
2023-01-07T02:57:57.001Z,13.10
2023-01-07T03:00:46.168Z,15.80
2023-01-07T03:03:13.123Z,17.70
2023-01-07T03:05:49.160Z,19.50
2023-01-07T03:08:23.739Z,16.00
2023-01-07T03:11:03.185Z,14.30
2023-01-07T03:13:43.647Z,21.90
2023-01-07T03:16:14.091Z,15.50
2023-01-07T03:18:44.282Z,16.30
2023-01-07T03:21:13.784Z,14.80
2023-01-07T03:23:44.157Z,14.00
2023-01-07T03:26:11.140Z,13.10
2023-01-07T03:28:40.999Z,11.50
2023-01-07T03:31:10.666Z,11.10
2023-01-07T03:33:56.961Z,11.50
2023-01-07T03:36:26.076Z,10.40
2023-01-07T03:38:54.338Z,10.50
2023-01-07T03:41:39.966Z,11.20
2023-01-07T03:44:07.465Z,11.60
2023-01-07T03:46:34.720Z,13.70
2023-01-07T03:49:01.629Z,12.90
2023-01-07T03:51:28.572Z,12.70
2023-01-07T03:53:55.954Z,16.00
2023-01-07T03:56:23.513Z,16.40
2023-01-07T03:58:50.371Z,19.80
2023-01-07T04:01:17.455Z,20.30
2023-01-07T04:03:44.733Z,19.50
2023-01-07T04:06:14.180Z,19.70
2023-01-07T04:08:41.080Z,17.00
2023-01-07T04:11:08.037Z,15.70
2023-01-07T04:13:37.833Z,14.10
2023-01-07T04:16:05.073Z,15.30
2023-01-07T04:18:31.912Z,20.00
2023-01-07T04:22:37.599Z,22.80
2023-01-07T04:25:06.279Z,20.70
2023-01-07T04:27:36.401Z,20.30
2023-01-07T04:30:03.957Z,17.40
2023-01-07T04:32:34.508Z,14.30
2023-01-07T04:35:05.125Z,11.30
2023-01-07T04:37:32.370Z,11.80
2023-01-07T04:40:05.012Z,11.40
2023-01-07T04:42:34.671Z,11.70
2023-01-07T04:45:02.147Z,12.60
2023-01-07T04:47:29.675Z,12.20
2023-01-07T04:49:56.818Z,12.40
2023-01-07T04:52:24.072Z,12.40
2023-01-07T04:54:51.228Z,12.80
2023-01-07T04:57:18.897Z,12.70
2023-01-07T04:59:46.321Z,12.70
2023-01-07T05:02:13.550Z,13.60
2023-01-07T05:04:41.281Z,14.20
2023-01-07T05:07:11.476Z,16.10
2023-01-07T05:09:41.799Z,17.60
2023-01-07T05:12:08.780Z,17.20
2023-01-07T05:14:35.997Z,17.00
2023-01-07T05:17:03.023Z,15.50
2023-01-07T05:19:30.192Z,14.70
2023-01-07T05:21:58.923Z,16.10
2023-01-07T05:24:27.484Z,15.80
2023-01-07T05:26:55.017Z,15.40
2023-01-07T05:29:25.666Z,15.10
2023-01-07T05:31:53.216Z,15.90
2023-01-07T05:34:23.738Z,16.50
2023-01-07T05:36:53.034Z,14.40
2023-01-07T05:39:20.003Z,13.70
2023-01-07T05:41:47.198Z,13.50
2023-01-07T05:44:14.284Z,13.70
2023-01-07T05:46:41.238Z,13.40
2023-01-07T05:49:08.283Z,14.10
2023-01-07T05:51:35.638Z,14.10
2023-01-07T05:54:02.571Z,13.70
2023-01-07T05:56:29.620Z,14.30
2023-01-07T05:58:56.672Z,13.60
2023-01-07T06:01:23.580Z,13.80
2023-01-07T16:40:23.979Z,10.00
2023-01-07T16:42:51.351Z,11.30
2023-01-07T16:45:23.766Z,9.70
2023-01-07T16:48:19.728Z,12.80
2023-01-07T16:50:47.708Z,10.50
2023-01-07T16:53:32.537Z,10.20
2023-01-07T16:56:02.679Z,9.40
2023-01-07T16:58:29.646Z,9.80
2023-01-07T17:00:57.570Z,9.90
2023-01-07T17:03:24.521Z,10.30
2023-01-07T17:06:04.899Z,10.90
2023-01-07T17:08:31.870Z,13.40
2023-01-07T17:11:36.755Z,17.40
2023-01-07T17:14:03.839Z,19.10
2023-01-07T17:16:31.576Z,20.40
2023-01-07T17:19:20.988Z,23.30
2023-01-07T17:21:48.086Z,20.40
2023-01-07T17:24:27.851Z,19.90
2023-01-07T17:26:59.374Z,24.30
2023-01-07T17:29:30.323Z,26.60
2023-01-07T17:31:59.509Z,24.20
2023-01-07T17:34:29.306Z,22.50
2023-01-07T17:36:56.133Z,18.40
2023-01-07T17:39:23.088Z,18.30
2023-01-07T17:42:08.822Z,20.20
2023-01-07T17:44:38.245Z,18.60
2023-01-07T17:47:06.480Z,19.10
2023-01-07T17:49:38.023Z,18.60
2023-01-07T17:52:05.930Z,18.30
2023-01-07T17:54:36.243Z,18.30
2023-01-07T17:57:03.055Z,19.70
2023-01-07T17:59:30.655Z,18.40
2023-01-07T18:01:59.200Z,16.60
2023-01-07T18:04:27.142Z,17.90
2023-01-07T18:06:54.493Z,18.70
2023-01-07T18:09:21.702Z,21.00
2023-01-07T18:12:07.483Z,20.10
2023-01-07T18:14:34.482Z,22.60
2023-01-07T18:17:01.509Z,20.70
2023-01-07T18:19:28.495Z,20.30
2023-01-07T18:21:56.473Z,18.20
2023-01-07T18:24:23.702Z,17.10
2023-01-07T18:26:50.640Z,17.70
2023-01-07T18:29:17.598Z,18.30
2023-01-07T18:31:44.549Z,18.80
2023-01-07T18:34:12.272Z,19.60
2023-01-07T18:36:39.295Z,19.50
2023-01-07T18:39:06.351Z,18.30
2023-01-07T18:41:35.302Z,19.60
2023-01-07T18:44:03.338Z,17.10
2023-01-07T18:46:31.091Z,15.60
2023-01-07T18:48:58.209Z,16.50
2023-01-07T18:51:25.235Z,16.00
2023-01-07T18:53:52.687Z,17.80
2023-01-07T18:56:24.232Z,17.50
2023-01-07T18:59:01.070Z,17.50
2023-01-07T19:01:28.594Z,20.40
2023-01-07T19:03:58.719Z,17.10
2023-01-07T19:06:26.813Z,16.20
2023-01-07T19:08:56.660Z,16.10
2023-01-07T19:11:23.813Z,17.00
2023-01-07T19:13:50.856Z,18.10
2023-01-07T19:16:17.892Z,19.00
2023-01-07T19:18:45.218Z,20.10
2023-01-07T19:21:12.356Z,22.90
2023-01-07T19:23:39.362Z,20.90
2023-01-07T19:26:07.671Z,22.10
2023-01-07T19:28:34.722Z,23.40
2023-01-07T19:31:04.659Z,23.30
2023-01-07T19:33:31.559Z,23.70
2023-01-07T19:36:15.832Z,23.80
2023-01-07T19:38:45.426Z,22.70
2023-01-07T19:41:15.008Z,21.60
2023-01-07T19:43:41.950Z,21.20
2023-01-07T19:46:09.948Z,19.70
2023-01-07T19:48:39.355Z,19.70
2023-01-07T19:51:06.414Z,18.10
2023-01-07T19:53:33.763Z,21.10
2023-01-07T19:56:01.680Z,21.60
2023-01-07T19:58:29.253Z,22.50
2023-01-07T20:00:58.900Z,20.50
2023-01-07T20:03:26.120Z,20.80
2023-01-07T20:05:53.161Z,16.20
2023-01-07T20:08:20.317Z,13.80
2023-01-07T20:10:55.908Z,14.10
2023-01-07T20:13:22.779Z,15.30
2023-01-07T20:15:52.251Z,15.10
2023-01-07T20:18:19.602Z,12.90
2023-01-07T20:20:56.744Z,13.10
2023-01-07T20:23:23.966Z,13.40
2023-01-07T20:25:51.254Z,12.50
2023-01-07T20:28:21.802Z,13.80
2023-01-07T20:30:48.758Z,13.10
2023-01-07T20:33:15.627Z,13.00
2023-01-07T20:35:43.269Z,14.20
2023-01-07T20:38:11.653Z,11.40
2023-01-07T20:40:39.431Z,16.20
2023-01-07T20:43:06.429Z,12.00
2023-01-07T20:45:38.722Z,11.20
2023-01-07T20:48:08.340Z,10.10
2023-01-07T20:50:39.051Z,10.00
2023-01-07T20:53:06.149Z,9.50
2023-01-07T20:55:33.455Z,8.90
2023-01-07T20:58:00.478Z,8.40
2023-01-07T21:00:27.628Z,8.40
2023-01-07T21:02:54.734Z,9.40
2023-01-07T21:05:23.450Z,8.60
2023-01-07T21:07:50.703Z,9.10
2023-01-07T21:10:18.655Z,9.00
2023-01-07T21:12:46.186Z,10.10
2023-01-07T21:15:14.302Z,12.00
2023-01-07T21:17:41.580Z,11.00
2023-01-07T21:20:09.336Z,12.80
2023-01-07T21:22:38.021Z,14.10
2023-01-07T21:25:09.059Z,14.50
2023-01-07T21:27:36.392Z,15.00
2023-01-07T21:30:06.043Z,15.10
2023-01-07T21:32:34.745Z,14.70
2023-01-07T21:35:01.831Z,15.40
2023-01-07T21:37:29.402Z,14.10
2023-01-07T21:39:56.534Z,14.60
2023-01-07T21:42:23.521Z,12.50
2023-01-07T21:44:50.694Z,12.30
2023-01-07T21:47:17.649Z,14.30
2023-01-07T21:49:44.441Z,13.70
2023-01-07T21:52:11.214Z,19.00
2023-01-07T21:54:38.180Z,15.70
2023-01-07T21:57:05.053Z,17.50
2023-01-07T21:59:31.846Z,17.00
2023-01-07T22:01:59.018Z,18.10
2023-01-07T22:04:27.097Z,18.30
2023-01-07T22:06:54.030Z,20.00
2023-01-07T22:09:20.872Z,20.70
2023-01-07T22:11:50.792Z,22.80
2023-01-07T22:14:18.523Z,21.60
2023-01-07T22:16:47.514Z,21.20
2023-01-07T22:19:15.902Z,19.20
2023-01-07T22:21:45.899Z,20.90
2023-01-07T22:24:14.420Z,21.20
2023-01-07T22:26:41.406Z,22.60
2023-01-07T22:29:08.486Z,24.10
2023-01-07T22:31:36.863Z,21.50
2023-01-07T22:34:05.022Z,22.60
2023-01-07T22:36:35.093Z,19.70
2023-01-07T22:39:05.531Z,22.90
2023-01-07T22:41:32.502Z,23.00
2023-01-07T22:44:05.272Z,24.20
2023-01-07T22:46:32.135Z,21.60
2023-01-07T22:48:59.145Z,21.70
2023-01-07T22:51:37.924Z,21.50
2023-01-07T22:54:05.548Z,21.90
2023-01-07T22:56:32.846Z,21.60
2023-01-07T22:59:04.527Z,23.30
2023-01-07T23:01:32.171Z,23.70
2023-01-07T23:03:59.041Z,22.80
2023-01-07T23:06:27.027Z,22.50
2023-01-07T23:08:53.883Z,21.40
2023-01-07T23:11:39.499Z,20.80
2023-01-07T23:14:11.143Z,21.20
2023-01-07T23:16:40.393Z,23.70
2023-01-07T23:19:07.476Z,23.90
2023-01-07T23:21:34.578Z,20.50
2023-01-07T23:24:01.521Z,21.20
2023-01-07T23:26:28.441Z,22.60
2023-01-07T23:28:55.346Z,23.50
2023-01-07T23:31:22.222Z,22.20
2023-01-07T23:33:49.081Z,21.40
2023-01-07T23:36:15.951Z,19.80
2023-01-07T23:38:42.884Z,19.00
2023-01-07T23:41:10.687Z,18.30
2023-01-07T23:43:37.725Z,20.30
2023-01-07T23:46:06.031Z,20.20
2023-01-07T23:48:33.752Z,21.00
2023-01-07T23:51:10.592Z,21.60
2023-01-07T23:53:37.757Z,19.30
2023-01-07T23:56:04.911Z,20.90
2023-01-07T23:58:32.267Z,20.50
